This is the latest recevied weather packets stored in our database for station/object KC9EGS. If no packets are shown the sender has not sent any weather packets the latest 10 day(s).
| Time | Temp. | Humidity | Pressure | Rain* | Wind** | Luminosity | Snow |
|---|---|---|---|---|---|---|---|
| 1777879514 | 11.11° C | 43% | 993.7 hPa | 0 mm | - | - | - |
| 1777878921 | 10.56° C | 43% | 993.7 hPa | 0 mm | - | - | - |
| 1777878614 | 10.56° C | 43% | 994.1 hPa | 0 mm | - | - | - |
| 1777878321 | 10.56° C | 44% | 994.1 hPa | 0 mm | - | - | - |
| 1777877713 | 9.44° C | 46% | 994.5 hPa | 0 mm | - | - | - |
| 1777877120 | 8.33° C | 51% | 994.5 hPa | 0 mm | - | - | - |
| 1777876814 | 7.22° C | 54% | 995.2 hPa | 0 mm | - | - | - |
| 1777876519 | 6.11° C | 60% | 995.2 hPa | 0 mm | - | - | - |
| 1777875913 | 5.56° C | 66% | 995.4 hPa | 0 mm | - | - | - |
| 1777875320 | 5.56° C | 65% | 995.4 hPa | 0 mm | - | - | - |
| 1777875015 | 5.56° C | 65% | 995.8 hPa | 0 mm | - | - | - |
| 1777874721 | 5.56° C | 67% | 995.8 hPa | 0 mm | - | - | - |
| 1777874113 | 5.56° C | 66% | 996.1 hPa | 0 mm | - | - | - |
| 1777873519 | 6.11° C | 67% | 996.1 hPa | 0 mm | - | - | - |
| 1777873214 | 6.11° C | 67% | 996.3 hPa | 0 mm | - | - | - |
| 1777872919 | 6.11° C | 66% | 996.3 hPa | 0 mm | - | - | - |
| 1777872313 | 6.11° C | 66% | 996.4 hPa | 0 mm | - | - | - |
| 1777871720 | 6.11° C | 66% | 996.4 hPa | 0 mm | - | - | - |
| 1777871414 | 6.67° C | 65% | 996.8 hPa | 0 mm | - | - | - |
| 1777870513 | 6.67° C | 64% | 997 hPa | 0 mm | - | - | - |
| 1777869919 | 7.22° C | 64% | 997 hPa | 0 mm | - | - | - |
| 1777869614 | 7.22° C | 63% | 997 hPa | 0 mm | - | - | - |
| 1777869320 | 7.22° C | 63% | 997 hPa | 0 mm | - | - | - |
| 1777868715 | 7.78° C | 62% | 997 hPa | 0 mm | - | - | - |
| 1777868118 | 8.33° C | 60% | 997 hPa | 0 mm | - | - | - |
* Rain latest hour (hover to see other rain measurements)
** Current wind speed in m/s (hover to see current wind gust speed)